Time;durP1;ratioP1;P1;durP2;ratioP2;P2;SDS_P1;SDS_P2;PMS_P1;PMS_P2;Temp;Humidity;BMP_temperature;BMP_pressure;BME280_temperature;BME280_humidity;BME280_pressure;Samples;Min_cycle;Max_cycle;Signal;HPM_P1;HPM_P2
2021/05/31 00:01:01;;;;;;;10.00;2.20;;;;;;;23.57;42.53;100021.50;4484976;32;33990;-66
2021/05/31 00:03:29;;;;;;;5.93;2.12;;;;;;;23.56;42.57;100020.69;4469249;32;33540;-65
2021/05/31 00:05:56;;;;;;;6.68;1.80;;;;;;;23.56;42.55;100014.41;4468839;32;33973;-66
2021/05/31 00:08:24;;;;;;;6.47;2.00;;;;;;;23.55;42.52;100020.88;4474666;32;33783;-66
2021/05/31 00:10:52;;;;;;;8.00;2.47;;;;;;;23.54;42.58;100011.03;4484771;32;34136;-66
2021/05/31 00:13:20;;;;;;;9.13;2.12;;;;;;;23.54;42.60;100011.88;4484479;32;33817;-65
2021/05/31 00:15:49;;;;;;;16.33;3.45;;;;;;;23.54;42.54;100009.16;4484679;32;33926;-65
2021/05/31 00:18:17;;;;;;;12.05;2.78;;;;;;;23.56;42.52;100008.94;4484786;32;33863;-66
2021/05/31 00:20:46;;;;;;;11.88;2.42;;;;;;;23.55;42.70;100019.00;4485081;32;33038;-65
2021/05/31 00:23:13;;;;;;;9.43;2.10;;;;;;;23.55;42.52;100013.56;4484764;32;33759;-66
2021/05/31 00:25:41;;;;;;;10.75;2.33;;;;;;;23.54;42.75;100014.59;4484335;32;33821;-66
2021/05/31 00:28:13;;;;;;;9.27;2.55;;;;;;;23.54;42.59;100020.03;4484043;32;34362;-66
2021/05/31 00:30:41;;;;;;;7.12;1.98;;;;;;;23.54;42.68;100009.16;4484641;32;33462;-66
2021/05/31 00:33:08;;;;;;;8.60;2.80;;;;;;;23.54;42.75;100008.31;4484660;32;34044;-65
2021/05/31 00:35:36;;;;;;;10.88;2.40;;;;;;;23.54;42.72;100009.16;4484599;32;33554;-66
2021/05/31 00:38:12;;;;;;;10.85;2.37;;;;;;;23.53;42.77;100007.50;4484586;32;33838;-66
2021/05/31 00:40:39;;;;;;;8.00;2.28;;;;;;;23.55;42.75;99999.09;4484445;32;33643;-67
2021/05/31 00:43:07;;;;;;;7.53;2.12;;;;;;;23.54;42.69;99992.81;4483565;32;33896;-66
2021/05/31 00:45:35;;;;;;;11.68;2.55;;;;;;;23.53;42.74;99985.69;4472100;32;33880;-67
2021/05/31 00:48:02;;;;;;;11.82;2.30;;;;;;;23.53;42.70;99985.69;4484368;32;33628;-68
2021/05/31 00:50:31;;;;;;;13.80;2.62;;;;;;;23.53;42.79;99985.69;4484252;32;33321;-67
2021/05/31 00:52:58;;;;;;;8.13;2.10;;;;;;;23.53;42.77;99982.97;4484268;32;33810;-67
2021/05/31 00:55:26;;;;;;;8.63;2.37;;;;;;;23.53;42.73;99985.69;4484121;32;34578;-68
2021/05/31 00:57:55;;;;;;;8.10;2.12;;;;;;;23.53;42.68;99982.97;4484253;32;34024;-68
2021/05/31 01:00:22;;;;;;;11.38;2.28;;;;;;;23.53;42.60;99977.53;4484476;32;33981;-66
2021/05/31 01:02:50;;;;;;;11.50;2.62;;;;;;;23.53;42.70;99974.81;4484075;32;33835;-68
2021/05/31 01:05:17;;;;;;;11.50;2.60;;;;;;;23.54;42.71;99972.91;4484688;32;34918;-68
2021/05/31 01:07:50;;;;;;;6.62;2.17;;;;;;;23.53;42.75;99965.81;4484433;32;34509;-67
2021/05/31 01:10:22;;;;;;;12.52;2.25;;;;;;;23.53;42.74;99971.25;4483254;32;33275;-67
2021/05/31 01:12:57;;;;;;;12.70;2.25;;;;;;;23.52;42.81;99970.44;4482688;32;33797;-68
2021/05/31 01:15:32;;;;;;;9.43;2.72;;;;;;;23.53;42.78;99965.81;4484257;32;33943;-67
2021/05/31 01:18:09;;;;;;;9.38;2.00;;;;;;;23.52;42.78;99970.44;4470268;32;33605;-67
2021/05/31 01:20:59;;;;;;;6.45;2.10;;;;;;;23.52;42.75;99966.88;4470292;32;33362;-67
2021/05/31 01:23:28;;;;;;;8.85;2.40;;;;;;;23.53;42.73;99969.34;4482836;32;33855;-67
2021/05/31 01:26:09;;;;;;;15.38;2.62;;;;;;;23.51;42.65;99970.66;4483048;32;33788;-68
2021/05/31 01:29:08;;;;;;;9.23;2.20;;;;;;;23.54;42.75;99959.28;4484266;32;33712;-66
2021/05/31 01:31:47;;;;;;;10.50;2.40;;;;;;;23.54;42.89;99957.41;4482995;32;33594;-68
2021/05/31 01:34:25;;;;;;;10.57;2.55;;;;;;;23.51;42.81;99946.16;4482617;32;33598;-67
2021/05/31 01:37:00;;;;;;;12.10;2.45;;;;;;;23.50;42.77;99948.03;4483003;32;33945;-67
2021/05/31 01:39:30;;;;;;;8.20;1.90;;;;;;;23.49;42.81;99946.34;4470449;32;33731;-68
2021/05/31 01:41:58;;;;;;;;;;;;;;;23.49;42.78;99940.91;4483104;32;33297;-68
2021/05/31 01:44:26;;;;;;;8.20;1.83;;;;;;;23.59;42.47;99941.22;4484245;32;34015;-67
2021/05/31 01:46:54;;;;;;;10.40;2.20;;;;;;;23.52;42.65;99940.47;4484145;32;33788;-68
2021/05/31 01:49:21;;;;;;;5.68;1.90;;;;;;;23.49;42.71;99938.19;4484192;32;33854;-67
2021/05/31 01:51:49;;;;;;;11.32;2.15;;;;;;;23.49;42.76;99937.34;4482631;32;33265;-67
2021/05/31 01:54:17;;;;;;;6.87;2.10;;;;;;;23.48;42.79;99939.25;4482690;32;34475;-67
2021/05/31 01:56:47;;;;;;;7.85;2.42;;;;;;;23.49;42.72;99945.50;4482721;32;33787;-68
2021/05/31 01:59:14;;;;;;;12.70;2.30;;;;;;;23.48;42.78;99949.31;4482941;32;33785;-67
2021/05/31 02:01:42;;;;;;;7.20;2.10;;;;;;;23.50;42.69;99949.91;4482203;32;33415;-67
2021/05/31 02:04:10;;;;;;;8.23;2.00;;;;;;;23.48;42.70;99952.03;4482772;32;33795;-68
2021/05/31 02:06:37;;;;;;;5.30;1.92;;;;;;;23.48;42.70;99952.03;4484037;32;33851;-67
2021/05/31 02:09:05;;;;;;;8.95;1.98;;;;;;;23.48;42.68;99947.41;4483907;32;33760;-67
2021/05/31 02:11:36;;;;;;;8.80;2.05;;;;;;;23.49;42.68;99948.25;4481093;32;81727;-68
2021/05/31 02:14:09;;;;;;;6.82;2.15;;;;;;;23.48;42.71;99950.13;4483906;32;35201;-68
2021/05/31 02:16:41;;;;;;;5.93;1.75;;;;;;;23.47;42.67;99945.75;4482623;32;33935;-67
2021/05/31 02:21:56;;;;;;;13.52;2.62;;;;;;;23.49;42.63;99950.97;4482559;32;33521;-67
2021/05/31 02:24:23;;;;;;;7.97;2.25;;;;;;;23.48;42.84;99947.41;4483928;32;34689;-67
2021/05/31 02:26:51;;;;;;;7.53;1.77;;;;;;;23.47;42.82;99934.84;4482528;32;33802;-68
2021/05/31 02:29:19;;;;;;;8.27;2.08;;;;;;;23.47;42.73;99929.41;4469584;32;34514;-67
2021/05/31 02:31:46;;;;;;;7.68;1.98;;;;;;;23.47;42.76;99928.59;4483825;32;33314;-67
2021/05/31 02:34:16;;;;;;;5.93;2.00;;;;;;;23.47;42.76;99929.41;4483400;32;33790;-67
2021/05/31 02:36:43;;;;;;;7.45;1.85;;;;;;;23.48;42.76;99938.41;4483665;32;33934;-67
2021/05/31 02:39:11;;;;;;;6.87;2.30;;;;;;;23.48;42.73;99933.78;4483633;32;34513;-67
2021/05/31 02:41:38;;;;;;;9.10;1.95;;;;;;;23.49;42.74;99931.91;4483323;32;33378;-67
2021/05/31 02:44:06;;;;;;;7.20;1.85;;;;;;;23.48;42.75;99941.97;4483546;32;33870;-67
2021/05/31 02:46:34;;;;;;;5.45;1.80;;;;;;;23.47;42.73;99934.03;4483519;32;33828;-67
2021/05/31 02:49:03;;;;;;;6.60;2.10;;;;;;;23.48;42.73;99932.97;4482872;32;34342;-68
2021/05/31 02:51:31;;;;;;;7.12;1.85;;;;;;;23.48;42.71;99930.25;4482876;32;34351;-67
2021/05/31 02:53:58;;;;;;;7.82;1.75;;;;;;;23.48;42.75;99930.25;4483652;32;34970;-67
2021/05/31 02:56:26;;;;;;;4.68;1.67;;;;;;;23.47;42.85;99929.41;4483285;32;33820;-67
2021/05/31 02:58:53;;;;;;;4.30;1.62;;;;;;;23.48;42.92;99935.69;4483584;32;33851;-67
2021/05/31 03:01:21;;;;;;;8.60;2.40;;;;;;;23.47;42.96;99934.84;4483178;32;33396;-68
2021/05/31 03:03:49;;;;;;;10.73;2.40;;;;;;;23.46;42.90;99935.91;4483235;32;33898;-67
2021/05/31 03:06:17;;;;;;;12.63;2.17;;;;;;;23.47;42.83;99931.31;4483305;32;34535;-68
2021/05/31 03:08:45;;;;;;;10.38;2.50;;;;;;;23.46;42.77;99933.19;4483168;32;34749;-67
2021/05/31 03:11:12;;;;;;;8.50;1.83;;;;;;;23.46;42.78;99925.03;4482871;32;33612;-68
2021/05/31 03:13:40;;;;;;;4.85;1.90;;;;;;;23.47;42.77;99934.03;4482883;32;33760;-67
2021/05/31 03:16:08;;;;;;;4.95;1.70;;;;;;;23.47;42.73;99926.69;4483235;32;33858;-68
2021/05/31 03:18:35;;;;;;;7.32;1.85;;;;;;;23.46;42.73;99927.75;4483085;32;33799;-68
2021/05/31 03:21:03;;;;;;;6.07;2.03;;;;;;;23.46;42.71;99927.75;4482924;32;32970;-67
2021/05/31 03:23:31;;;;;;;7.50;1.92;;;;;;;23.46;42.67;99927.75;4483181;32;34334;-67
2021/05/31 03:25:58;;;;;;;11.93;1.75;;;;;;;23.46;42.71;99932.37;4483060;32;33807;-68
2021/05/31 03:28:26;;;;;;;7.40;1.58;;;;;;;23.46;42.73;99929.66;4482946;32;33758;-68
2021/05/31 03:30:53;;;;;;;7.05;1.73;;;;;;;23.45;42.67;99919.78;4482663;32;33250;-68
2021/05/31 03:33:21;;;;;;;6.95;1.70;;;;;;;23.45;42.69;99930.69;4482866;32;33197;-68
2021/05/31 03:35:49;;;;;;;7.57;2.17;;;;;;;23.45;42.68;99928.78;4482911;32;34898;-67
2021/05/31 03:38:16;;;;;;;5.10;1.58;;;;;;;23.45;42.69;99930.69;4481236;32;34618;-68
2021/05/31 03:40:44;;;;;;;8.27;2.08;;;;;;;23.46;42.65;99932.37;4482608;32;32899;-67
2021/05/31 03:43:11;;;;;;;8.20;1.73;;;;;;;23.43;42.68;99926.28;4480718;32;33820;-66
2021/05/31 03:45:39;;;;;;;8.10;2.37;;;;;;;23.46;42.62;99937.81;4481755;32;34849;-66
2021/05/31 03:48:07;;;;;;;10.10;2.10;;;;;;;23.46;42.71;99935.09;4482754;32;34226;-66
2021/05/31 03:50:35;;;;;;;6.35;2.83;;;;;;;23.44;42.76;99929.84;4482565;32;34307;-66
2021/05/31 03:53:03;;;;;;;6.25;1.80;;;;;;;23.45;42.74;99931.50;4482365;32;33719;-65
2021/05/31 03:55:30;;;;;;;7.05;1.67;;;;;;;23.45;42.79;99931.50;4482501;32;33969;-66
2021/05/31 03:58:00;;;;;;;11.45;2.35;;;;;;;23.46;42.77;99929.66;4482316;32;34150;-66
2021/05/31 04:00:28;;;;;;;7.03;2.07;;;;;;;23.45;42.76;99923.34;4482280;32;33220;-66
2021/05/31 04:02:56;;;;;;;10.07;2.17;;;;;;;23.46;42.77;99922.31;4484816;32;33801;-66
2021/05/31 04:05:28;;;;;;;7.85;1.75;;;;;;;23.45;42.79;99923.34;4470703;32;33619;-65
2021/05/31 04:13:43;;;;;;;5.35;1.73;;;;;;;23.47;42.78;99920.41;4484778;32;33554;-65
2021/05/31 04:16:10;;;;;;;7.93;1.70;;;;;;;23.45;42.81;99926.06;4484701;32;33928;-65
2021/05/31 04:18:38;;;;;;;5.72;1.60;;;;;;;23.44;42.90;99916.22;4484797;32;33708;-66
2021/05/31 04:21:06;;;;;;;6.12;1.90;;;;;;;23.45;42.84;99919.78;4485052;32;32971;-66
2021/05/31 04:23:33;;;;;;;12.48;2.25;;;;;;;23.45;42.84;99922.50;4484479;32;34789;-66
2021/05/31 04:26:01;;;;;;;11.98;1.90;;;;;;;23.42;42.78;99919.19;4484701;32;33832;-65
2021/05/31 04:28:28;;;;;;;6.25;1.80;;;;;;;23.42;42.80;99924.63;4484248;32;33898;-66
2021/05/31 04:30:56;;;;;;;10.00;2.28;;;;;;;23.45;42.73;99934.22;4484434;32;33250;-68
2021/05/31 04:33:24;;;;;;;10.85;1.65;;;;;;;23.45;42.89;99926.06;4484774;32;34002;-67
2021/05/31 04:35:51;;;;;;;6.97;1.80;;;;;;;23.44;42.98;99921.69;4484610;32;34766;-67
2021/05/31 04:38:19;;;;;;;8.52;1.85;;;;;;;23.45;42.94;99925.22;4484323;32;33776;-67
2021/05/31 04:40:46;;;;;;;6.10;1.90;;;;;;;23.42;42.88;99916.47;4484906;32;33390;-67
2021/05/31 04:43:14;;;;;;;7.53;1.75;;;;;;;23.45;42.97;99923.34;4484638;32;33823;-67
2021/05/31 04:45:46;;;;;;;4.55;1.92;;;;;;;23.45;43.04;99928.78;4484436;32;35154;-67
2021/05/31 04:48:13;;;;;;;7.35;1.35;;;;;;;23.45;42.80;99931.50;4484450;32;34061;-67
2021/05/31 04:50:41;;;;;;;8.60;1.90;;;;;;;23.46;42.71;99925.03;4484702;32;34333;-66
2021/05/31 04:53:10;;;;;;;10.10;2.58;;;;;;;23.46;42.77;99918.75;4484455;32;35200;-67
2021/05/31 04:55:38;;;;;;;10.45;1.73;;;;;;;23.45;42.83;99915.16;4484493;32;34830;-68
2021/05/31 04:58:06;;;;;;;7.30;1.80;;;;;;;23.46;42.86;99916.84;4484463;32;33756;-66
2021/05/31 05:00:34;;;;;;;9.68;2.05;;;;;;;23.46;42.89;99907.84;4483516;32;33009;-65
2021/05/31 05:03:02;;;;;;;9.27;2.00;;;;;;;23.45;43.03;99917.87;4482730;32;33630;-65
2021/05/31 05:05:29;;;;;;;9.32;2.20;;;;;;;23.45;43.05;99907.00;4484212;32;33876;-67
2021/05/31 05:07:57;;;;;;;10.40;1.95;;;;;;;23.45;43.04;99914.34;4483359;32;34465;-65
2021/05/31 05:10:24;;;;;;;8.05;2.35;;;;;;;23.46;43.12;99911.41;4483849;32;32923;-65
2021/05/31 05:12:52;;;;;;;10.48;1.85;;;;;;;23.45;43.16;99912.44;4483504;32;33802;-65
2021/05/31 05:15:21;;;;;;;6.12;1.80;;;;;;;23.45;43.12;99909.72;4470026;32;34987;-65
2021/05/31 05:17:48;;;;;;;7.22;1.60;;;;;;;23.46;43.01;99913.31;4484451;32;33785;-65
2021/05/31 05:20:18;;;;;;;6.90;1.98;;;;;;;23.45;42.98;99919.78;4484445;32;33408;-65
2021/05/31 05:22:45;;;;;;;8.15;1.80;;;;;;;23.44;42.98;99916.22;4482838;32;33763;-66
2021/05/31 05:25:13;;;;;;;10.50;1.87;;;;;;;23.45;42.83;99909.72;4482306;32;33670;-65
2021/05/31 05:27:42;;;;;;;10.55;1.73;;;;;;;23.47;42.80;99914.97;4479942;32;33303;-66
2021/05/31 05:30:14;;;;;;;25.88;2.87;;;;;;;23.48;43.06;99920.19;4484502;32;34121;-63
2021/05/31 05:32:47;;;;;;;16.77;1.87;;;;;;;23.49;43.19;99921.00;4484238;32;33474;-67
2021/05/31 05:35:35;;;;;;;7.70;1.98;;;;;;;23.48;43.12;99914.72;4482853;32;33591;-67
2021/05/31 05:43:51;;;;;;;10.00;2.08;;;;;;;23.46;42.78;99929.66;4484228;32;35354;-67
2021/05/31 05:46:26;;;;;;;11.93;2.05;;;;;;;23.45;42.39;99931.50;4484075;32;35337;-67
2021/05/31 05:48:58;;;;;;;11.10;2.12;;;;;;;23.44;42.31;99924.41;4483953;31;33798;-66
2021/05/31 05:51:25;;;;;;;4.70;1.58;;;;;;;23.43;42.10;99929.00;4482789;32;33348;-71
2021/05/31 05:53:58;;;;;;;11.07;2.62;;;;;;;23.41;42.10;99930.31;4484200;32;33911;-63
2021/05/31 05:56:26;;;;;;;27.98;3.85;;;;;;;23.43;42.34;99934.47;4483300;32;33631;-67
2021/05/31 05:58:54;;;;;;;32.33;3.53;;;;;;;23.44;42.22;99932.56;4482321;32;33588;-66
2021/05/31 06:01:22;;;;;;;24.27;3.22;;;;;;;23.42;42.20;99935.53;4482889;32;34346;-66
2021/05/31 06:03:53;;;;;;;28.15;3.95;;;;;;;23.41;42.13;99933.88;4482510;32;33684;-67
2021/05/31 06:06:21;;;;;;;27.90;3.47;;;;;;;23.40;42.02;99929.44;4483976;32;34906;-66
2021/05/31 06:08:49;;;;;;;19.33;3.50;;;;;;;23.40;41.80;99934.06;4483922;32;33532;-66
2021/05/31 06:11:17;;;;;;;20.33;3.17;;;;;;;23.39;41.72;99919.63;4483983;32;33098;-66
2021/05/31 06:13:46;;;;;;;20.83;3.35;;;;;;;23.39;41.67;99926.97;4483847;32;34816;-66
2021/05/31 06:16:13;;;;;;;13.50;3.00;;;;;;;23.38;41.66;99923.41;4483883;32;33974;-66
2021/05/31 06:18:41;;;;;;;14.85;3.15;;;;;;;23.39;41.70;99925.06;4483809;32;33818;-66
2021/05/31 06:21:09;;;;;;;23.33;2.90;;;;;;;23.39;41.60;99925.06;4483011;32;34495;-66
2021/05/31 06:23:36;;;;;;;13.50;2.50;;;;;;;23.38;41.56;99928.03;4483600;32;34798;-67
2021/05/31 06:26:05;;;;;;;20.15;3.03;;;;;;;23.38;41.56;99919.84;4483807;32;33804;-66
2021/05/31 06:28:32;;;;;;;13.98;2.87;;;;;;;23.38;41.52;99926.13;4483771;32;33953;-66
2021/05/31 06:31:00;;;;;;;10.90;2.37;;;;;;;23.37;41.42;99926.38;4482288;32;33616;-66
2021/05/31 06:33:28;;;;;;;18.58;2.97;;;;;;;23.36;41.37;99924.69;4483775;32;33740;-66
2021/05/31 06:35:56;;;;;;;8.88;2.40;;;;;;;23.36;41.36;99927.41;4483664;32;34710;-66
2021/05/31 06:38:23;;;;;;;16.58;3.50;;;;;;;23.35;41.35;99923.00;4483427;32;33846;-66
2021/05/31 06:40:51;;;;;;;12.57;2.95;;;;;;;23.37;41.30;99929.09;4483796;32;33344;-66
2021/05/31 06:43:19;;;;;;;12.55;2.70;;;;;;;23.34;41.36;99922.19;4483690;32;33748;-67
2021/05/31 06:45:46;;;;;;;9.30;2.80;;;;;;;23.34;41.28;99926.81;4483487;32;34922;-67
2021/05/31 06:48:14;;;;;;;11.88;2.45;;;;;;;23.34;41.28;99924.09;4483637;32;33711;-66
2021/05/31 06:50:43;;;;;;;7.95;2.50;;;;;;;23.33;41.28;99925.13;4483332;32;33317;-66
2021/05/31 06:53:11;;;;;;;9.60;2.33;;;;;;;23.34;41.22;99929.53;4483528;32;34420;-66
2021/05/31 06:55:39;;;;;;;9.25;2.78;;;;;;;23.33;41.24;99928.69;4483396;32;33901;-66
2021/05/31 06:58:06;;;;;;;11.52;2.53;;;;;;;23.32;41.21;99923.47;4483345;32;33858;-67
2021/05/31 07:00:35;;;;;;;11.75;2.67;;;;;;;23.32;41.20;99920.75;4483369;32;33303;-67
2021/05/31 07:03:03;;;;;;;7.18;2.40;;;;;;;23.31;41.19;99922.63;4483461;32;35215;-66
2021/05/31 07:05:31;;;;;;;8.43;2.45;;;;;;;23.32;41.15;99918.03;4483464;32;34702;-66
2021/05/31 07:07:59;;;;;;;7.72;2.35;;;;;;;23.31;41.15;99924.50;4482117;32;35287;-66
2021/05/31 07:10:28;;;;;;;6.80;2.62;;;;;;;23.29;41.15;99921.19;4483315;32;33276;-66
2021/05/31 07:12:56;;;;;;;9.32;2.55;;;;;;;23.30;41.13;99928.28;4483050;32;34498;-67
2021/05/31 07:15:24;;;;;;;7.40;2.55;;;;;;;23.29;41.16;99921.19;4482865;32;34617;-66
2021/05/31 07:17:52;;;;;;;7.85;2.40;;;;;;;23.28;41.12;99925.81;4482111;32;33831;-66
2021/05/31 07:20:20;;;;;;;7.75;2.05;;;;;;;23.28;41.13;99928.53;4483003;32;33464;-67
2021/05/31 07:22:48;;;;;;;6.43;2.20;;;;;;;23.28;41.12;99931.25;4483473;32;33008;-67
2021/05/31 07:25:16;;;;;;;5.25;2.28;;;;;;;23.26;41.18;99927.06;4483275;32;33908;-67
2021/05/31 07:27:44;;;;;;;8.68;2.33;;;;;;;23.27;41.09;99931.44;4482929;32;34677;-66
2021/05/31 07:30:13;;;;;;;10.10;2.45;;;;;;;23.26;41.10;99933.34;4483070;32;33974;-67
2021/05/31 07:32:41;;;;;;;5.18;2.30;;;;;;;23.25;41.09;99930.84;4481690;32;33454;-67
2021/05/31 07:35:09;;;;;;;5.75;2.20;;;;;;;23.24;41.09;99937.38;4482767;32;33806;-67
2021/05/31 07:37:36;;;;;;;8.48;2.55;;;;;;;23.23;41.08;99941.16;4483597;32;33774;-67
2021/05/31 07:40:07;;;;;;;5.75;2.90;;;;;;;23.23;41.11;99941.16;4483774;32;33313;-67
2021/05/31 07:42:35;;;;;;;7.07;2.65;;;;;;;23.23;41.06;99944.69;4482396;32;33849;-66
2021/05/31 07:45:03;;;;;;;7.10;2.72;;;;;;;23.22;41.08;99948.47;4484193;32;33921;-67
2021/05/31 07:47:31;;;;;;;7.30;2.50;;;;;;;23.23;41.10;99943.88;4485019;32;33726;-67
2021/05/31 07:49:59;;;;;;;7.93;2.28;;;;;;;23.22;41.10;99944.91;4474746;32;33258;-67
2021/05/31 07:52:28;;;;;;;11.00;2.42;;;;;;;23.22;41.07;99934.84;4469326;32;34082;-67
2021/05/31 07:54:56;;;;;;;6.87;2.35;;;;;;;23.23;41.05;99936.53;4469314;32;33496;-67
2021/05/31 07:57:24;;;;;;;4.78;2.37;;;;;;;23.22;41.03;99942.19;4469138;32;34808;-67
2021/05/31 07:59:52;;;;;;;6.85;2.55;;;;;;;23.22;41.00;99942.19;4476790;32;34405;-67
2021/05/31 08:02:21;;;;;;;9.38;2.87;;;;;;;23.21;41.04;99935.06;4483044;32;33967;-66
2021/05/31 08:04:48;;;;;;;7.32;2.47;;;;;;;23.20;40.99;99936.12;4482784;32;34031;-68
2021/05/31 08:07:16;;;;;;;6.75;2.40;;;;;;;23.20;41.04;99938.84;4484778;32;33931;-67
2021/05/31 08:09:44;;;;;;;6.22;2.42;;;;;;;23.21;41.05;99940.53;4482960;32;33641;-68
2021/05/31 08:12:12;;;;;;;11.60;2.83;;;;;;;23.21;41.02;99933.19;4484580;32;33944;-68
2021/05/31 08:14:39;;;;;;;5.53;2.40;;;;;;;23.22;41.01;99931.28;4484872;32;33706;-68
2021/05/31 08:17:07;;;;;;;4.82;2.75;;;;;;;23.23;41.01;99930.25;4484875;32;33474;-66
2021/05/31 08:19:35;;;;;;;4.47;2.40;;;;;;;23.22;41.00;99934.00;4484481;32;34052;-68
2021/05/31 08:22:04;;;;;;;7.00;2.30;;;;;;;23.22;40.96;99926.69;4483463;32;34359;-66
2021/05/31 08:24:31;;;;;;;5.20;2.40;;;;;;;23.21;40.97;99925.00;4473440;32;33801;-68
2021/05/31 08:26:59;;;;;;;5.80;2.62;;;;;;;23.22;40.99;99925.84;4483097;32;33569;-67
2021/05/31 08:29:27;;;;;;;5.57;2.10;;;;;;;23.22;40.99;99920.41;4469131;32;33378;-67
2021/05/31 08:31:54;;;;;;;6.20;2.37;;;;;;;23.22;41.00;99918.50;4468481;32;34984;-67
2021/05/31 08:34:24;;;;;;;6.95;2.37;;;;;;;23.22;40.98;99912.25;4484507;32;32659;-68
2021/05/31 08:36:52;;;;;;;9.85;2.30;;;;;;;23.22;40.99;99914.97;4484653;32;33825;-68
2021/05/31 08:39:19;;;;;;;4.28;2.33;;;;;;;23.23;40.96;99916.66;4477261;32;33355;-68
2021/05/31 08:41:47;;;;;;;7.15;2.58;;;;;;;23.20;41.02;99919.81;4483211;32;33805;-68
2021/05/31 08:44:31;;;;;;;4.03;2.20;;;;;;;23.21;41.00;99913.28;4484833;32;33653;-67
2021/05/31 08:47:03;;;;;;;4.28;2.35;;;;;;;23.22;40.93;99914.97;4484036;32;33699;-68
2021/05/31 08:49:31;;;;;;;6.30;2.53;;;;;;;23.23;40.93;99905.75;4484369;32;33380;-68
2021/05/31 08:51:58;;;;;;;5.90;2.62;;;;;;;23.21;40.94;99905.97;4471408;32;33834;-68
2021/05/31 08:54:26;;;;;;;5.03;2.50;;;;;;;23.22;40.91;99912.25;4474071;32;33565;-68
2021/05/31 08:56:53;;;;;;;5.47;2.47;;;;;;;23.21;40.91;99910.56;4484528;32;34836;-68
2021/05/31 08:59:21;;;;;;;5.95;2.28;;;;;;;23.21;40.90;99913.28;4484493;32;34349;-68
2021/05/31 09:01:49;;;;;;;4.15;2.20;;;;;;;23.21;40.87;99908.69;4484795;32;33750;-68
2021/05/31 09:04:16;;;;;;;4.72;2.45;;;;;;;23.18;40.78;99909.16;4484414;32;34015;-68
2021/05/31 09:06:55;;;;;;;4.53;2.35;;;;;;;23.19;40.68;99908.09;4484380;32;33828;-68
2021/05/31 09:09:42;;;;;;;7.12;2.33;;;;;;;23.21;40.65;99910.56;4470283;32;34480;-68
2021/05/31 09:12:11;;;;;;;6.28;2.37;;;;;;;23.23;40.54;99911.19;4482683;32;34443;-68
2021/05/31 09:14:39;;;;;;;7.32;2.15;;;;;;;23.20;40.35;99906.19;4483272;32;33905;-68
2021/05/31 09:17:07;;;;;;;5.22;2.20;;;;;;;23.19;40.09;99905.38;4484380;32;34493;-68
2021/05/31 09:19:35;;;;;;;5.03;2.67;;;;;;;23.19;40.13;99901.81;4484247;32;33337;-68
2021/05/31 09:22:05;;;;;;;3.92;2.15;;;;;;;23.19;40.00;99904.53;4484606;32;34483;-68
2021/05/31 09:24:33;;;;;;;4.47;2.30;;;;;;;23.19;40.21;99899.09;4483132;32;34460;-67
2021/05/31 09:27:00;;;;;;;4.93;2.10;;;;;;;23.20;40.14;99904.31;4484322;32;33597;-68
2021/05/31 09:29:28;;;;;;;5.03;2.12;;;;;;;23.19;39.99;99901.81;4484354;32;34073;-68
2021/05/31 09:31:59;;;;;;;4.07;2.00;;;;;;;23.18;39.70;99890.09;4483028;32;34734;-69
2021/05/31 09:34:27;;;;;;;6.53;2.20;;;;;;;23.18;39.53;99898.25;4484392;32;33927;-68
2021/05/31 09:36:59;;;;;;;4.50;2.10;;;;;;;23.18;39.44;99890.09;4484300;32;33741;-68
2021/05/31 09:39:45;;;;;;;4.87;2.25;;;;;;;23.19;39.71;99896.38;4484152;32;33260;-67
2021/05/31 09:42:14;;;;;;;3.87;2.00;;;;;;;23.21;39.52;99891.53;4484290;32;34657;-68
2021/05/31 09:44:47;;;;;;;6.10;2.78;;;;;;;23.20;39.49;99890.69;4483781;32;33852;-68
2021/05/31 09:47:25;;;;;;;3.75;1.70;;;;;;;23.19;39.57;99889.03;4470127;32;34874;-68
2021/05/31 09:49:54;;;;;;;3.37;1.83;;;;;;;23.19;39.51;99882.75;4483987;32;33519;-67
2021/05/31 09:52:21;;;;;;;4.22;2.20;;;;;;;23.17;39.16;99889.25;4484178;32;33776;-68
2021/05/31 09:54:52;;;;;;;4.50;2.00;;;;;;;23.16;39.44;99879.41;4484301;32;33956;-67
2021/05/31 09:57:24;;;;;;;4.65;2.30;;;;;;;23.17;39.43;99874.78;4484027;32;33745;-68
2021/05/31 09:59:55;;;;;;;3.55;2.00;;;;;;;23.17;39.50;99875.66;4483833;32;33420;-67
2021/05/31 10:10:43;;;;;;;4.05;2.28;;;;;;;23.16;39.41;99862.25;4483255;32;33355;-67
2021/05/31 10:13:11;;;;;;;3.20;1.70;;;;;;;23.16;39.14;99859.53;4483541;32;33757;-67
2021/05/31 10:15:40;;;;;;;5.75;2.00;;;;;;;23.17;39.28;99859.31;4483867;32;33908;-67
2021/05/31 10:18:09;;;;;;;4.10;1.80;;;;;;;23.18;38.99;99852.00;4483792;32;33557;-67
2021/05/31 10:20:37;;;;;;;3.15;1.60;;;;;;;23.16;38.32;99851.34;4482631;32;32992;-66
2021/05/31 10:23:06;;;;;;;3.35;2.00;;;;;;;23.16;38.18;99851.34;4481363;32;33743;-67
2021/05/31 10:25:35;;;;;;;4.15;1.87;;;;;;;23.17;38.32;99848.44;4483774;32;34809;-67
2021/05/31 10:28:16;;;;;;;3.12;1.90;;;;;;;23.17;38.21;99853.88;4483874;32;34498;-67
2021/05/31 10:30:49;;;;;;;3.20;1.75;;;;;;;23.19;37.67;99850.94;4470235;32;32917;-67
2021/05/31 10:33:21;;;;;;;3.22;1.83;;;;;;;23.17;37.78;99847.56;4468075;32;34079;-66
2021/05/31 10:35:51;;;;;;;3.22;1.70;;;;;;;23.18;37.91;99843.81;4468087;32;34048;-67
2021/05/31 10:38:23;;;;;;;6.05;1.80;;;;;;;23.16;38.30;99826.88;4467993;32;34512;-66
2021/05/31 10:40:52;;;;;;;4.12;1.87;;;;;;;23.16;38.29;99830.41;4468032;32;33184;-67
2021/05/31 10:43:24;;;;;;;4.43;1.62;;;;;;;23.17;38.25;99826.66;4468260;32;33757;-67
2021/05/31 10:46:02;;;;;;;5.32;1.85;;;;;;;23.19;38.15;99833.75;4467723;32;33782;-67
2021/05/31 10:48:41;;;;;;;3.00;1.73;;;;;;;23.19;37.85;99822.88;4467886;32;33764;-67
2021/05/31 10:51:14;;;;;;;5.10;1.87;;;;;;;23.19;37.96;99817.44;4467943;32;34931;-67
2021/05/31 10:53:42;;;;;;;3.40;1.67;;;;;;;23.19;38.45;99812.00;4467959;32;33604;-66
2021/05/31 10:56:12;;;;;;;3.60;1.60;;;;;;;23.18;38.45;99816.59;4467637;32;33877;-66
2021/05/31 10:58:41;;;;;;;3.22;1.80;;;;;;;23.18;37.83;99824.78;4467976;32;33479;-67
2021/05/31 11:01:10;;;;;;;4.93;1.90;;;;;;;23.19;37.00;99825.59;4480983;32;34142;-67
2021/05/31 11:03:48;;;;;;;4.13;2.03;;;;;;;23.17;36.99;99815.78;4483221;32;33412;-67
2021/05/31 11:06:17;;;;;;;4.43;2.12;;;;;;;23.20;37.30;99822.62;4483398;32;33898;-67
2021/05/31 11:08:52;;;;;;;3.42;1.62;;;;;;;23.18;37.51;99819.31;4483358;32;34339;-66
2021/05/31 11:11:26;;;;;;;4.32;2.20;;;;;;;23.20;37.44;99821.81;4484094;32;33080;-67
2021/05/31 11:13:54;;;;;;;2.62;1.60;;;;;;;23.20;37.91;99810.91;4485134;32;34704;-67
2021/05/31 11:16:22;;;;;;;2.15;1.58;;;;;;;23.18;37.51;99805.72;4475773;32;34913;-67
2021/05/31 11:18:56;;;;;;;3.47;2.00;;;;;;;23.17;37.45;99810.31;4468251;32;33742;-66
2021/05/31 11:21:45;;;;;;;2.50;1.55;;;;;;;23.19;37.39;99798.38;4469560;32;33172;-66
2021/05/31 11:24:14;;;;;;;4.07;2.03;;;;;;;23.21;37.43;99794.34;4469473;32;34777;-66
2021/05/31 11:26:43;;;;;;;4.75;1.95;;;;;;;23.18;37.07;99786.66;4480751;32;33860;-67
2021/05/31 11:29:11;;;;;;;4.05;1.90;;;;;;;23.19;37.17;99791.03;4485095;32;33959;-67
2021/05/31 11:31:39;;;;;;;4.53;1.62;;;;;;;23.19;37.19;99784.75;4484078;32;34074;-67
2021/05/31 11:34:07;;;;;;;3.65;1.62;;;;;;;23.17;37.17;99785.84;4470772;32;34516;-67
2021/05/31 11:36:42;;;;;;;3.37;1.90;;;;;;;23.18;37.16;99775.78;4484414;32;32625;-68
2021/05/31 11:39:12;;;;;;;3.28;1.67;;;;;;;23.16;37.50;99770.53;4481877;32;33458;-68
2021/05/31 11:41:41;;;;;;;2.45;1.58;;;;;;;23.16;37.54;99766.97;4485122;32;33357;-68
2021/05/31 11:44:11;;;;;;;2.85;1.80;;;;;;;23.16;37.69;99762.38;4484798;32;34700;-67
2021/05/31 11:46:52;;;;;;;4.05;1.70;;;;;;;23.16;38.10;99766.97;4484902;32;34964;-68
2021/05/31 11:49:20;;;;;;;2.72;1.77;;;;;;;23.19;38.32;99765.72;4485377;31;34545;-68
2021/05/31 11:52:14;;;;;;;2.97;1.60;;;;;;;23.17;38.65;99766.78;4485315;32;34059;-68
2021/05/31 11:54:42;;;;;;;4.65;1.98;;;;;;;23.21;38.54;99766.31;4482415;31;33707;-68
2021/05/31 11:57:10;;;;;;;5.60;1.87;;;;;;;23.18;37.67;99764.87;4484802;32;33879;-68
2021/05/31 11:59:44;;;;;;;2.95;1.87;;;;;;;23.20;37.36;99767.38;4484958;32;34575;-68
2021/05/31 12:02:16;;;;;;;4.00;1.65;;;;;;;23.19;37.46;99761.09;4483604;32;33275;-68
2021/05/31 12:04:44;;;;;;;2.95;1.70;;;;;;;23.17;37.21;99755.03;4484768;32;34724;-68